• Join FlightAware (Why Join?)
  • Login
  • US Flag 
05:08AM EDT


 

Airport Tracker/Info


-or-


 

Live Flight TrackerFlight Track Log ✈ GJS3712 ✈ 13-May-2013 ✈ KPHL - KORD

Flight Track Log - Related Links

Times and Time Zones

All times are in EDT time to prevent confusion due to time zone crossing. See the GJS3712 flight status page for this flight to view local times or setup timezone preferences in your user account.

Time Position Orientation Groundspeed Altitude Reporting Facility
EDT Latitude Longitude Course Direction KTS MPH feet Rate Location/Type
01:44PM 39.8667 -75.2833 237° Southwest 163 188 800  Level Philadelphia TRACON
01:46PM 39.8333 -75.3500 237° Southwest 226 260 3,300 2,520 Climbing Philadelphia TRACON
01:47PM 39.8500 -75.4333 285° West 240 276 6,400 2,880 Climbing Philadelphia TRACON
01:47PM 39.9000 -75.4667 333° Northwest 283 326 8,800 1,800 Climbing Philadelphia TRACON
01:48PM 39.9833 -75.4833 351° North 281 323 9,900 600 Climbing Philadelphia TRACON
01:49PM 40.0500 -75.5167 339° North 283 326 10,000 120 Climbing Philadelphia TRACON
01:50PM 40.1053 -75.5256 353° North 312 359 10,200 960 Climbing New York Center
01:51PM 40.2103 -75.5572 347° North 372 428 11,800 1,680 Climbing New York Center
01:52PM 40.2736 -75.6406 315° West 357 411 13,600 1,800 Climbing New York Center
01:53PM 40.3425 -75.7381 313° West 357 411 15,500 1,620 Climbing New York Center
01:54PM 40.4167 -75.8525 310° West 372 428 16,900 960 Climbing New York Center
01:55PM 40.4553 -75.9753 292° West 369 425 17,400 1,140 Climbing New York Center
01:56PM 40.4731 -76.0911 281° West 364 419 19,300 1,980 Climbing New York Center
01:57PM 40.4922 -76.2183 281° West 364 419 21,500 1,980 Climbing New York Center
01:58PM 40.5111 -76.3453 281° West 359 413 23,400 1,800 Climbing New York Center
01:59PM 40.5306 -76.4672 282° West 354 407 25,100 1,560 Climbing New York Center
02:00PM 40.5514 -76.5944 282° West 354 407 26,600 1,260 Climbing New York Center
02:01PM 40.5617 -76.7211 276° West 354 407 27,700 900 Climbing New York Center
02:02PM 40.5736 -76.8558 277° West 364 419 28,500 780 Climbing New York Center
02:03PM 40.5869 -76.9994 277° West 381 438 29,300 780 Climbing New York Center
02:05PM 40.6086 -77.2544 276° West 388 447 30,700 780 Climbing Cleveland Center
02:06PM 40.6211 -77.4042 276° West 401 461 31,500 600 Climbing Cleveland Center
02:07PM 40.6358 -77.5569 277° West 413 475 32,000 240 Climbing Cleveland Center
02:08PM 40.6481 -77.7094 276° West 424 488 32,000  Level Cleveland Center
02:09PM 40.6642 -77.8622 278° West 424 488 32,000  Level Cleveland Center
02:10PM 40.6844 -78.0119 280° West 424 488 32,000  Level Cleveland Center
02:11PM 40.7067 -78.1644 281° West 424 488 32,000  Level Cleveland Center
02:12PM 40.7264 -78.3172 280° West 424 488 32,000  Level Cleveland Center
02:13PM 40.7481 -78.4672 281° West 429 494 32,000  Level Cleveland Center
02:14PM 40.7675 -78.6228 279° West 429 494 32,000  Level Cleveland Center
02:15PM 40.7908 -78.7758 281° West 429 494 32,000  Level Cleveland Center
02:16PM 40.8075 -78.9153 279° West 429 494 32,000 180 Level Cleveland Center
02:17PM 40.8308 -79.0875 280° West 429 494 32,400 660 Climbing Cleveland Center
02:18PM 40.8514 -79.2408 280° West 429 494 33,400 960 Climbing Cleveland Center
02:19PM 40.8700 -79.3969 279° West 429 494 34,400 960 Climbing Cleveland Center
02:20PM 40.8900 -79.5478 280° West 429 494 35,400 780 Climbing Cleveland Center
02:21PM 40.9081 -79.6986 279° West 429 494 36,000 300 Climbing Cleveland Center
02:22PM 40.9258 -79.8522 279° West 429 494 36,000  Level Cleveland Center
02:23PM 40.9433 -79.9894 280° West 429 494 36,000  Level Cleveland Center
02:24PM 40.9628 -80.1403 280° West 429 494 36,000  Level Cleveland Center
02:25PM 40.9797 -80.2917 278° West 429 494 36,000  Level Cleveland Center
02:26PM 40.9969 -80.4400 279° West 429 494 36,000  Level Cleveland Center
02:27PM 41.0178 -80.5969 280° West 429 494 36,000  Level Cleveland Center
02:28PM 41.0344 -80.7483 278° West 429 494 36,000  Level Cleveland Center
02:29PM 41.0506 -80.8997 278° West 429 494 36,000  Level Cleveland Center
02:30PM 41.0606 -81.0511 275° West 424 488 36,000  Level Cleveland Center
02:31PM 41.0681 -81.2111 274° West 429 494 36,000  Level Cleveland Center
02:32PM 41.0775 -81.3653 275° West 424 488 36,000  Level Cleveland Center
02:33PM 41.0869 -81.5225 275° West 424 488 36,000  Level Cleveland Center
02:34PM 41.0958 -81.6908 274° West 424 488 36,000  Level Cleveland Center
02:35PM 41.1067 -81.8453 275° West 424 488 36,000  Level Cleveland Center
02:36PM 41.1153 -81.9997 274° West 424 488 36,000  Level Cleveland Center
02:37PM 41.1236 -82.1542 274° West 424 488 36,000  Level Cleveland Center
02:38PM 41.1319 -82.3061 274° West 424 488 36,000  Level Cleveland Center
02:39PM 41.1400 -82.4442 274° West 424 488 36,000  Level Cleveland Center
02:40PM 41.1458 -82.5989 273° West 424 488 36,000  Level Cleveland Center
02:41PM 41.1536 -82.7481 274° West 424 488 36,000  Level Cleveland Center
02:42PM 41.1611 -82.8944 274° West 419 482 36,000  Level Cleveland Center
02:43PM 41.1683 -83.0464 274° West 414 476 36,000  Level Cleveland Center
02:44PM 41.1753 -83.2067 273° West 409 471 36,000  Level Cleveland Center
02:45PM 41.1842 -83.3561 275° West 404 465 36,000  Level Cleveland Center
02:46PM 41.1886 -83.5081 272° West 410 472 36,000  Level Cleveland Center
02:47PM 41.1972 -83.6575 274° West 410 472 36,000  Level Cleveland Center
02:48PM 41.2025 -83.7764 273° West 405 466 36,000 -120 Level Cleveland Center
02:50PM 41.2183 -84.0939 274° West 398 458 35,800 -300 Descending Chicago Center
02:51PM 41.2253 -84.2742 273° West 405 466 35,200 -540 Descending Chicago Center
02:52PM 41.2289 -84.4239 272° West 405 466 34,700 -540 Descending Chicago Center
02:53PM 41.2328 -84.5756 272° West 409 471 34,200 -360 Descending Chicago Center
02:54PM 41.2364 -84.7256 272° West 409 471 34,000 -120 Descending Chicago Center
02:55PM 41.2419 -84.8731 273° West 403 464 34,000  Level Chicago Center
02:56PM 41.2456 -85.0189 272° West 398 458 34,000 -60 Level Chicago Center
02:57PM 41.2517 -85.1967 273° West 398 458 33,900 -900 Descending Chicago Center
02:58PM 41.2561 -85.3483 272° West 404 465 32,200 -1,800 Descending Chicago Center
02:59PM 41.2606 -85.5058 272° West 417 480 30,200 -2,040 Descending Chicago Center
03:00PM 41.2644 -85.6619 272° West 421 484 28,100 -2,280 Descending Chicago Center
03:01PM 41.2675 -85.8117 272° West 405 466 25,500 -1,500 Descending Chicago Center
03:02PM 41.2769 -85.9558 275° West 392 451 25,000 -540 Descending Chicago Center
03:03PM 41.2903 -86.1011 277° West 394 453 24,400 -1,380 Descending Chicago Center
03:04PM 41.3072 -86.2422 279° West 390 449 22,200 -2,520 Descending Chicago Center
03:06PM 41.3275 -86.4028 280° West 369 425 19,300 -2,280 Descending Chicago Center
03:07PM 41.3422 -86.5317 279° West 354 407 17,500 -1,920 Descending Chicago Center
03:08PM 41.3828 -86.6469 295° West 345 397 15,400 -1,980 Descending Chicago Center
03:09PM 41.4489 -86.7283 317° Northwest 324 373 13,400 -1,620 Descending Chicago Center
03:10PM 41.5292 -86.7769 336° Northwest 320 368 12,100 -720 Descending Chicago Center
03:11PM 41.6169 -86.7897 354° North 317 365 12,000 -60 Descending Chicago Center
03:12PM 41.7219 -86.8019 355° North 319 367 12,000  Level Chicago Center
03:13PM 41.8100 -86.8164 353° North 320 368 12,000 -60 Level Chicago Center
03:14PM 41.8894 -86.8608 337° Northwest 321 369 11,900 -480 Descending Chicago Center
03:15PM 41.9169 -86.9653 290° West 314 361 11,100 -900 Descending Chicago Center
03:16PM 41.9314 -87.0667 281° West 291 335 10,100 -1,020 Descending Chicago Center
03:17PM 41.9483 -87.1817 281° West 269 310 9,100 -900 Descending Chicago Center
03:18PM 41.9619 -87.2761 281° West 262 302 8,300 -780 Descending Chicago Center
03:19PM 41.9739 -87.3694 280° West 257 296 7,600 -780 Descending Chicago Center
03:20PM 41.9833 -87.4333 281° West 259 298 7,100 -1,140 Descending Chicago TRACON
03:21PM 41.9833 -87.5333 270° West 238 274 5,800 -1,200 Descending Chicago TRACON
03:22PM 41.9833 -87.6000 270° West 203 234 4,700 -960 Descending Chicago TRACON
03:23PM 41.9833 -87.6667 270° West 170 196 3,900 -900 Descending Chicago TRACON
03:24PM 41.9833 -87.7333 270° West 178 205 3,000 -960 Descending Chicago TRACON
03:25PM 41.9833 -87.8000 270° West 177 204 2,000 -900 Descending Chicago TRACON
03:26PM 41.9833 -87.8667 270° West 148 170 1,100 -780 Descending Chicago TRACON
03:28PM 41.9667 -87.9000 270° West  Level FlightAware Approximate